This is the latest recevied weather packets stored in our database for station/object OK0EK-12. If no packets are shown the sender has not sent any weather packets the latest 10 day(s).
| Time | Temp. | Humidity | Pressure | Rain* | Wind** | Luminosity | Snow |
|---|---|---|---|---|---|---|---|
| 1777268138 | 8.89° C | 43% | 1103.7 hPa | - | - | - | - |
| 1777267539 | 8.89° C | 42% | 1103.7 hPa | - | - | - | - |
| 1777266947 | 8.33° C | 45% | 1103.7 hPa | - | - | - | - |
| 1777266341 | 6.11° C | 51% | 1103.8 hPa | - | - | - | - |
| 1777265742 | 3.89° C | 55% | 1103.9 hPa | - | - | - | - |
| 1777265142 | 2.78° C | 59% | 1103.9 hPa | - | - | - | - |
| 1777264551 | 1.11° C | 64% | 1104 hPa | - | - | - | - |
| 1777263944 | 0° C | 69% | 1104 hPa | - | - | - | - |
| 1777263353 | -0.56° C | 70% | 1104 hPa | - | - | - | - |
| 1777262746 | -1.11° C | 73% | 1103.9 hPa | - | - | - | - |
| 1777262147 | -1.11° C | 72% | 1103.9 hPa | - | - | - | - |
| 1777261548 | -1.11° C | 71% | 1103.9 hPa | - | - | - | - |
| 1777260949 | -1.11° C | 71% | 1103.9 hPa | - | - | - | - |
| 1777260350 | -1.11° C | 70% | 1103.8 hPa | - | - | - | - |
| 1777259751 | -0.56° C | 69% | 1103.8 hPa | - | - | - | - |
| 1777259153 | -0.56° C | 69% | 1103.8 hPa | - | - | - | - |
| 1777258554 | -0.56° C | 70% | 1103.8 hPa | - | - | - | - |
| 1777257955 | -0.56° C | 70% | 1103.9 hPa | - | - | - | - |
| 1777257356 | -1.11° C | 70% | 1103.9 hPa | - | - | - | - |
| 1777256758 | -1.11° C | 70% | 1103.9 hPa | - | - | - | - |
| 1777256158 | -0.56° C | 70% | 1103.9 hPa | - | - | - | - |
| 1777255560 | -0.56° C | 70% | 1103.9 hPa | - | - | - | - |
| 1777254961 | -0.56° C | 70% | 1103.9 hPa | - | - | - | - |
| 1777254362 | -0.56° C | 71% | 1103.9 hPa | - | - | - | - |
| 1777253764 | -0.56° C | 71% | 1103.9 hPa | - | - | - | - |
* Rain since midnight (hover to see other rain measurements)
** Current wind speed in m/s (hover to see current wind gust speed)